Time;durP1;ratioP1;P1;durP2;ratioP2;P2;SDS_P1;SDS_P2;PMS_P1;PMS_P2;Temp;Humidity;BMP_temperature;BMP_pressure;BME280_temperature;BME280_humidity;BME280_pressure;Samples;Min_cycle;Max_cycle;Signal;HPM_P1;HPM_P2
2023/08/11 00:02:57;;;;;;;2.58;1.58;;;;;;;25.05;100.00;100951.47;21045580;28;20056;-70
2023/08/11 00:13:21;;;;;;;5.57;1.58;;;;;;;25.07;100.00;100952.28;21060769;28;20044;-69
2023/08/11 00:23:45;;;;;;;3.00;1.60;;;;;;;25.02;100.00;100956.97;21038810;28;20036;-70
2023/08/11 00:34:08;;;;;;;5.82;1.90;;;;;;;24.94;100.00;100956.44;21033208;28;20126;-69
2023/08/11 00:44:33;;;;;;;3.38;1.60;;;;;;;24.96;100.00;100954.53;21043451;28;20055;-71
2023/08/11 00:54:58;;;;;;;6.38;1.80;;;;;;;24.87;100.00;100954.88;21043705;28;20048;-69
2023/08/11 01:05:23;;;;;;;3.78;1.73;;;;;;;24.92;100.00;100947.50;21054350;28;20571;-70
2023/08/11 01:15:52;;;;;;;5.15;1.92;;;;;;;24.91;100.00;100952.03;21041276;28;20048;-70
2023/08/11 01:26:17;;;;;;;5.72;1.55;;;;;;;24.95;100.00;100952.75;21039749;28;20048;-70
2023/08/11 01:36:19;;;;;;;6.82;1.52;;;;;;;24.96;100.00;100952.72;21012468;28;20565;-70
2023/08/11 01:46:25;;;;;;;2.50;1.33;;;;;;;25.00;100.00;100953.47;21048938;28;20044;-69
2023/08/11 01:56:49;;;;;;;8.88;1.70;;;;;;;24.93;100.00;100951.97;21036394;28;20543;-70
2023/08/11 02:07:13;;;;;;;4.68;1.80;;;;;;;24.90;100.00;100954.78;21035486;28;20048;-70
2023/08/11 02:17:37;;;;;;;6.40;1.80;;;;;;;24.92;100.00;100956.50;21081815;28;20553;-70
2023/08/11 02:28:01;;;;;;;6.03;1.73;;;;;;;24.92;100.00;100959.19;21035290;28;20052;-70
2023/08/11 02:38:24;;;;;;;8.48;1.80;;;;;;;24.89;100.00;100972.81;21037402;28;20047;-70
2023/08/11 02:48:38;;;;;;;5.90;1.98;;;;;;;24.87;100.00;100971.97;21059633;28;20051;-70
2023/08/11 02:59:01;;;;;;;5.35;2.22;;;;;;;24.82;100.00;100967.69;21033830;28;20048;-70
2023/08/11 03:09:25;;;;;;;6.45;2.20;;;;;;;24.73;100.00;100976.16;21026816;28;20044;-71
2023/08/11 03:19:48;;;;;;;6.28;2.25;;;;;;;24.66;100.00;100972.81;21042013;28;20496;-70
2023/08/11 03:30:14;;;;;;;9.68;2.40;;;;;;;24.62;100.00;100973.84;21030691;28;20048;-70
2023/08/11 03:40:40;;;;;;;8.95;2.03;;;;;;;24.57;100.00;100978.56;21025129;28;20068;-70
2023/08/11 03:51:06;;;;;;;7.88;1.60;;;;;;;24.64;100.00;100974.69;21032165;28;20040;-69
2023/08/11 04:01:30;;;;;;;12.10;1.85;;;;;;;24.92;100.00;100980.81;21032679;28;20127;-70
2023/08/11 04:11:55;;;;;;;8.05;1.63;;;;;;;25.27;100.00;100992.00;21043346;28;20048;-70
2023/08/11 04:22:18;;;;;;;7.00;1.92;;;;;;;25.48;100.00;100984.78;21016973;28;20070;-70
2023/08/11 04:32:44;;;;;;;6.82;1.75;;;;;;;25.67;100.00;100997.50;21022269;28;20364;-70
2023/08/11 04:43:06;;;;;;;4.95;1.70;;;;;;;26.29;100.00;101006.53;21041945;28;20055;-70
2023/08/11 04:53:35;;;;;;;5.20;1.40;;;;;;;26.51;100.00;101012.72;21025565;28;20054;-70
2023/08/11 05:03:58;;;;;;;6.13;1.75;;;;;;;26.55;100.00;101019.75;20998915;28;20067;-70
2023/08/11 05:14:23;;;;;;;5.00;1.42;;;;;;;26.74;100.00;101028.78;20978198;28;20558;-70
2023/08/11 05:24:46;;;;;;;4.03;1.30;;;;;;;26.83;100.00;101017.50;20997401;28;20144;-70
2023/08/11 05:35:12;;;;;;;5.22;1.35;;;;;;;27.77;100.00;101020.09;21049706;28;20070;-70
2023/08/11 05:45:34;;;;;;;8.15;1.38;;;;;;;28.20;100.00;101036.91;21089068;28;20056;-70
2023/08/11 05:55:59;;;;;;;7.35;1.60;;;;;;;29.32;100.00;101042.41;21091499;28;20696;-70
2023/08/11 06:06:21;;;;;;;7.25;1.05;;;;;;;30.49;100.00;101046.28;21056367;28;20051;-70
2023/08/11 06:16:45;;;;;;;6.00;1.63;;;;;;;30.32;100.00;101048.28;21019407;28;20122;-71
2023/08/11 06:27:09;;;;;;;8.65;2.03;;;;;;;29.39;100.00;101048.41;21048819;28;20661;-70
2023/08/11 06:37:34;;;;;;;9.25;1.60;;;;;;;30.34;95.18;101047.19;21036205;28;20706;-70
2023/08/11 06:47:43;;;;;;;5.32;1.23;;;;;;;30.97;89.95;101070.53;21062860;28;20056;-71
2023/08/11 06:58:07;;;;;;;9.45;1.60;;;;;;;29.87;92.90;101068.22;21047696;28;20468;-70
2023/08/11 07:08:31;;;;;;;6.40;1.35;;;;;;;29.80;94.75;101072.31;21026334;28;20485;-70
2023/08/11 07:18:55;;;;;;;6.82;2.15;;;;;;;30.51;91.03;101095.25;21050046;28;20080;-70
2023/08/11 07:29:18;;;;;;;8.52;2.05;;;;;;;30.35;89.63;101097.13;21053374;28;20067;-70
2023/08/11 07:39:42;;;;;;;6.10;1.67;;;;;;;30.42;94.05;101095.78;21051905;28;20400;-70
2023/08/11 07:50:06;;;;;;;9.25;1.90;;;;;;;30.81;90.63;101081.53;21049869;28;20050;-69
2023/08/11 08:00:30;;;;;;;7.18;1.70;;;;;;;31.10;87.79;101107.00;21047156;28;20044;-70
2023/08/11 08:10:52;;;;;;;6.68;1.92;;;;;;;31.49;82.19;101107.13;21039054;28;20490;-70
2023/08/11 08:21:17;;;;;;;7.10;1.70;;;;;;;31.46;84.01;101115.50;21039266;28;20077;-70
2023/08/11 08:31:40;;;;;;;7.75;1.63;;;;;;;31.96;78.89;101109.44;21015877;28;20064;-70
2023/08/11 08:42:06;;;;;;;9.88;2.00;;;;;;;32.53;71.66;101108.25;20963030;28;20109;-70
2023/08/11 08:52:29;;;;;;;9.85;4.93;;;;;;;32.75;71.20;101114.88;20973516;28;20055;-70
2023/08/11 09:02:54;;;;;;;9.55;1.60;;;;;;;33.83;63.65;101115.09;20960424;28;20063;-70
2023/08/11 09:13:17;;;;;;;5.18;1.70;;;;;;;34.33;57.66;101103.00;20990262;28;20365;-70
2023/08/11 09:23:44;;;;;;;6.30;1.77;;;;;;;34.76;53.42;101111.50;20967675;28;20704;-70
2023/08/11 09:34:15;;;;;;;4.05;1.25;;;;;;;34.88;51.44;101115.13;20963899;28;20040;-70
2023/08/11 09:44:40;;;;;;;4.78;1.48;;;;;;;35.38;50.08;101121.16;20966018;28;20596;-71
2023/08/11 09:55:06;;;;;;;4.53;1.50;;;;;;;35.30;47.17;101109.91;20967045;28;20044;-70
2023/08/11 10:05:35;;;;;;;4.18;1.27;;;;;;;35.52;45.54;101116.22;20988311;28;20449;-70
2023/08/11 10:15:58;;;;;;;7.78;1.63;;;;;;;35.61;43.83;101119.22;20977801;28;20067;-70
2023/08/11 10:26:23;;;;;;;10.27;2.50;;;;;;;35.43;43.60;101122.50;20989736;28;20084;-70
2023/08/11 10:36:45;;;;;;;;;;;;;;;35.23;45.28;101119.66;20996088;28;20524;-70
2023/08/11 10:47:10;;;;;;;6.75;1.85;;;;;;;35.04;44.89;101103.78;20975799;28;20387;-70
2023/08/11 10:57:34;;;;;;;6.20;1.40;;;;;;;35.28;43.91;101099.03;21002067;28;20056;-71
2023/08/11 11:07:59;;;;;;;3.63;1.33;;;;;;;34.58;43.50;101101.09;21034281;28;20447;-70
2023/08/11 11:18:21;;;;;;;4.80;1.38;;;;;;;34.59;43.32;101098.19;21054420;28;20454;-70
2023/08/11 11:28:45;;;;;;;5.00;1.48;;;;;;;34.82;43.21;101092.78;21050762;28;20043;-70
2023/08/11 11:39:08;;;;;;;8.38;1.98;;;;;;;34.57;44.72;101083.75;21024929;28;20055;-70
2023/08/11 11:49:32;;;;;;;4.70;1.33;;;;;;;34.95;44.40;101082.56;21040453;28;20531;-70
2023/08/11 11:59:55;;;;;;;8.25;1.88;;;;;;;34.65;44.73;101085.88;21041172;28;20889;-70
2023/08/11 12:10:21;;;;;;;8.65;1.88;;;;;;;34.42;45.32;101078.59;21017626;28;20086;-70
2023/08/11 12:20:45;;;;;;;7.18;1.50;;;;;;;34.36;44.20;101072.59;21053336;28;20097;-70
2023/08/11 12:31:08;;;;;;;;;;;;;;;34.35;42.37;101064.50;21050467;28;20113;-70
2023/08/11 12:41:31;;;;;;;4.60;1.17;;;;;;;34.15;42.11;101062.41;21014433;28;19981;-70
2023/08/11 12:51:55;;;;;;;5.13;1.40;;;;;;;34.32;42.45;101057.41;21042778;28;20105;-70
2023/08/11 13:02:18;;;;;;;6.97;1.58;;;;;;;34.24;43.76;101054.38;20992026;28;20044;-70
2023/08/11 13:12:45;;;;;;;4.75;1.33;;;;;;;34.08;44.72;101059.28;21053046;28;20399;-70
2023/08/11 13:23:07;;;;;;;4.50;1.40;;;;;;;33.47;47.47;101047.53;21028577;28;20044;-70
2023/08/11 13:33:31;;;;;;;7.35;1.50;;;;;;;33.10;47.20;101048.47;21040523;28;20086;-71
2023/08/11 13:43:53;;;;;;;5.50;1.70;;;;;;;32.82;46.82;101047.75;21019613;28;20105;-70
2023/08/11 13:54:17;;;;;;;6.07;1.63;;;;;;;32.63;50.05;101035.50;21032449;28;20241;-70
2023/08/11 14:04:40;;;;;;;7.60;1.58;;;;;;;32.61;53.50;101035.63;21053331;28;20060;-69
2023/08/11 14:15:05;;;;;;;8.30;1.60;;;;;;;32.73;54.48;101039.38;21040885;28;20451;-70
2023/08/11 14:25:28;;;;;;;6.65;1.70;;;;;;;32.74;53.20;101042.00;21037000;28;20056;-70
2023/08/11 14:35:52;;;;;;;10.65;1.73;;;;;;;32.88;52.41;101030.06;21067241;28;20055;-70
2023/08/11 14:46:15;;;;;;;9.00;1.77;;;;;;;33.16;54.46;101029.75;21045504;28;20062;-70
2023/08/11 14:56:39;;;;;;;6.63;1.70;;;;;;;32.62;56.25;101020.97;21052333;28;20051;-71
2023/08/11 15:07:02;;;;;;;7.43;2.25;;;;;;;32.08;57.30;101025.72;21047088;28;20051;-70
2023/08/11 15:17:26;;;;;;;7.63;1.98;;;;;;;31.43;61.76;101032.94;21021276;28;20411;-70
2023/08/11 15:27:49;;;;;;;5.15;1.73;;;;;;;30.85;67.93;101039.47;21044188;28;20048;-70
2023/08/11 15:38:13;;;;;;;6.75;2.10;;;;;;;30.41;69.54;101021.31;21028805;28;20052;-70
2023/08/11 15:48:36;;;;;;;6.28;2.33;;;;;;;30.07;72.69;101010.75;21033448;28;20044;-69
2023/08/11 15:59:00;;;;;;;9.73;2.50;;;;;;;29.81;79.04;101012.31;21038082;28;20040;-70
2023/08/11 16:09:14;;;;;;;8.38;3.10;;;;;;;29.71;83.53;101008.41;21041578;28;20048;-70
2023/08/11 16:19:38;;;;;;;6.53;2.58;;;;;;;29.56;86.53;101017.47;21039553;28;20040;-70
2023/08/11 16:30:01;;;;;;;10.20;2.90;;;;;;;29.46;88.28;101019.00;21030641;28;20055;-70
2023/08/11 16:40:29;;;;;;;8.32;2.67;;;;;;;29.24;92.09;101016.59;21056085;28;20044;-70
2023/08/11 16:50:52;;;;;;;9.53;3.13;;;;;;;29.02;93.45;101013.34;21020714;28;20054;-70
2023/08/11 17:01:16;;;;;;;16.00;7.30;;;;;;;28.75;94.54;101003.06;21036615;28;20098;-70
2023/08/11 17:11:38;;;;;;;10.10;3.70;;;;;;;28.59;98.95;101009.44;21036775;28;20051;-70
2023/08/11 17:22:03;;;;;;;12.05;4.03;;;;;;;28.38;100.00;101004.19;20989787;28;20048;-70
2023/08/11 17:32:26;;;;;;;9.32;4.35;;;;;;;28.18;100.00;101004.41;21073060;28;20443;-70
2023/08/11 17:42:50;;;;;;;8.52;4.05;;;;;;;28.05;100.00;101025.84;21039130;28;20052;-70
2023/08/11 17:53:13;;;;;;;12.35;3.90;;;;;;;27.97;100.00;101027.22;21037698;28;20125;-69
2023/08/11 18:03:37;;;;;;;9.23;3.08;;;;;;;27.72;100.00;101038.47;21054393;28;20052;-69
2023/08/11 18:16:32;;;;;;;9.65;3.30;;;;;;;27.62;96.38;101042.63;20961409;28;20970;-69
2023/08/11 18:26:54;;;;;;;8.52;3.60;;;;;;;27.55;100.00;101038.44;20980889;28;20140;-69
2023/08/11 18:37:19;;;;;;;10.48;5.07;;;;;;;27.57;100.00;101050.97;20958327;28;20114;-68
2023/08/11 18:47:42;;;;;;;9.73;4.43;;;;;;;27.50;100.00;101049.50;20976091;28;20523;-68
2023/08/11 18:58:06;;;;;;;9.13;3.65;;;;;;;27.42;100.00;101035.44;20988992;28;20067;-69
2023/08/11 19:08:29;;;;;;;9.40;3.15;;;;;;;27.33;100.00;101033.19;20973506;28;20051;-69
2023/08/11 19:18:53;;;;;;;12.90;3.60;;;;;;;27.27;100.00;101034.38;20953527;28;20041;-69
2023/08/11 19:29:17;;;;;;;9.02;2.80;;;;;;;27.19;100.00;101027.56;20930347;28;20048;-69
2023/08/11 19:39:41;;;;;;;14.70;5.25;;;;;;;27.15;100.00;101026.84;20915100;28;20045;-69
2023/08/11 19:50:04;;;;;;;8.45;2.97;;;;;;;27.08;100.00;101025.38;20914170;28;20103;-69
2023/08/11 20:00:29;;;;;;;11.40;3.30;;;;;;;27.00;100.00;101024.84;20884501;28;20457;-69
2023/08/11 20:10:52;;;;;;;12.10;3.08;;;;;;;26.96;100.00;101012.41;20899595;28;20055;-69
2023/08/11 20:21:16;;;;;;;8.20;3.08;;;;;;;26.94;100.00;101019.75;20885469;28;20049;-69
2023/08/11 20:31:39;;;;;;;7.30;3.10;;;;;;;26.85;100.00;101009.28;20923392;28;20504;-69
2023/08/11 20:42:03;;;;;;;7.43;2.60;;;;;;;26.69;100.00;101008.28;20924013;28;20045;-68
2023/08/11 20:52:26;;;;;;;9.73;3.25;;;;;;;26.58;100.00;101014.22;20885809;28;20366;-69
2023/08/11 21:02:50;;;;;;;8.52;2.65;;;;;;;26.48;100.00;101007.44;20890530;28;20100;-69
2023/08/11 21:13:12;;;;;;;11.02;2.95;;;;;;;26.35;100.00;101007.13;20911334;28;20064;-69
2023/08/11 21:23:36;;;;;;;10.45;2.80;;;;;;;26.32;100.00;101015.38;20842957;28;20052;-70
2023/08/11 21:34:00;;;;;;;9.82;2.28;;;;;;;26.30;100.00;101008.28;20907142;28;20436;-70
2023/08/11 21:44:25;;;;;;;7.93;2.15;;;;;;;26.23;100.00;100991.41;20873084;28;20688;-70
2023/08/11 21:54:46;;;;;;;9.25;2.45;;;;;;;26.15;100.00;101001.69;20889920;28;20053;-71
2023/08/11 22:05:13;;;;;;;9.52;2.38;;;;;;;26.07;100.00;100983.09;20917231;28;20448;-71
2023/08/11 22:15:36;;;;;;;10.07;2.53;;;;;;;25.96;100.00;100988.13;20889715;28;20585;-71
2023/08/11 22:26:01;;;;;;;9.48;2.40;;;;;;;25.91;100.00;100976.63;20899621;28;20053;-70
2023/08/11 22:36:23;;;;;;;7.40;2.42;;;;;;;25.87;100.00;100974.09;20901285;28;20378;-71
2023/08/11 22:46:49;;;;;;;9.25;3.05;;;;;;;25.82;100.00;100958.09;20876913;28;20541;-71
2023/08/11 22:57:12;;;;;;;10.32;3.15;;;;;;;25.75;100.00;100951.19;20882924;28;20057;-71
2023/08/11 23:07:38;;;;;;;12.98;2.65;;;;;;;25.73;100.00;100950.41;20885578;28;20118;-71
2023/08/11 23:18:01;;;;;;;8.20;2.58;;;;;;;25.63;100.00;100944.50;20913809;28;20056;-71
2023/08/11 23:28:28;;;;;;;9.80;3.10;;;;;;;25.63;100.00;100938.22;20878997;28;20045;-71
2023/08/11 23:38:50;;;;;;;10.23;3.42;;;;;;;25.60;100.00;100939.22;20915258;28;20049;-71
2023/08/11 23:49:14;;;;;;;8.27;3.13;;;;;;;25.55;100.00;100921.41;20918879;28;20060;-71
2023/08/11 23:59:37;;;;;;;11.02;3.10;;;;;;;25.51;100.00;100912.56;20896286;28;20056;-70
